Time;durP1;ratioP1;P1;durP2;ratioP2;P2;SDS_P1;SDS_P2;PMS_P1;PMS_P2;Temp;Humidity;BMP_temperature;BMP_pressure;BME280_temperature;BME280_humidity;BME280_pressure;Samples;Min_cycle;Max_cycle;Signal;HPM_P1;HPM_P2
2022/04/24 00:01:15;;;;;;;17.13;8.00;;;7.20;99.90;;;;;;5100968;28;20536;-53
2022/04/24 00:03:41;;;;;;;11.10;7.77;;;7.20;99.90;;;;;;5097322;28;20196;-54
2022/04/24 00:06:07;;;;;;;9.90;7.37;;;7.10;99.90;;;;;;5092009;28;20184;-54
2022/04/24 00:08:33;;;;;;;11.80;8.47;;;7.10;99.90;;;;;;5091333;28;20903;-50
2022/04/24 00:10:58;;;;;;;13.80;7.77;;;7.00;99.90;;;;;;5094750;28;20205;-52
2022/04/24 00:13:24;;;;;;;12.03;7.90;;;7.00;99.90;;;;;;5106702;28;20205;-50
2022/04/24 00:15:50;;;;;;;11.40;7.70;;;7.00;99.90;;;;;;5111677;28;20197;-50
2022/04/24 00:18:16;;;;;;;13.03;7.17;;;7.00;99.90;;;;;;5093829;28;20231;-50
2022/04/24 00:20:43;;;;;;;11.37;7.57;;;7.00;99.90;;;;;;5105368;28;20418;-50
2022/04/24 00:23:08;;;;;;;11.90;7.50;;;6.90;99.90;;;;;;5095585;28;20193;-50
2022/04/24 00:25:34;;;;;;;11.17;7.63;;;6.90;99.90;;;;;;5093033;28;20415;-53
2022/04/24 00:28:01;;;;;;;12.07;7.67;;;6.90;1.00;;;;;;5104616;28;20669;-54
2022/04/24 00:30:27;;;;;;;12.00;7.77;;;6.90;1.00;;;;;;5113161;28;20207;-54
2022/04/24 00:32:52;;;;;;;13.73;8.20;;;7.00;1.00;;;;;;5110131;28;20449;-54
2022/04/24 00:35:18;;;;;;;12.93;8.47;;;6.90;1.00;;;;;;5091043;28;20469;-54
2022/04/24 00:37:43;;;;;;;11.40;7.27;;;6.90;1.00;;;;;;5110143;28;20564;-53
2022/04/24 00:40:09;;;;;;;11.17;7.53;;;6.90;1.00;;;;;;5106905;28;20267;-54
2022/04/24 00:42:35;;;;;;;12.60;7.53;;;6.90;1.00;;;;;;5098514;28;20185;-54
2022/04/24 00:45:01;;;;;;;11.07;7.73;;;6.90;1.00;;;;;;5097508;28;20780;-54
2022/04/24 00:47:26;;;;;;;13.00;7.97;;;6.80;1.00;;;;;;5104572;28;20283;-54
2022/04/24 00:49:52;;;;;;;11.33;7.07;;;6.80;1.00;;;;;;5093453;28;20680;-54
2022/04/24 00:52:18;;;;;;;12.37;8.13;;;6.90;1.00;;;;;;5109497;28;20204;-54
2022/04/24 00:54:43;;;;;;;15.80;7.70;;;6.90;1.00;;;;;;5112898;28;20211;-53
2022/04/24 00:57:10;;;;;;;13.43;7.77;;;6.90;1.00;;;;;;5112266;28;20418;-53
2022/04/24 00:59:39;;;;;;;12.60;7.70;;;6.80;1.00;;;;;;5109595;28;20192;-54
2022/04/24 01:02:06;;;;;;;10.00;6.77;;;6.80;1.00;;;;;;5104343;28;20449;-54
2022/04/24 01:04:34;;;;;;;11.70;6.83;;;6.80;1.00;;;;;;5076415;28;20482;-53
2022/04/24 01:07:00;;;;;;;11.23;7.00;;;6.70;1.00;;;;;;5093366;28;20539;-54
2022/04/24 01:09:26;;;;;;;12.30;7.50;;;6.70;1.00;;;;;;5108084;28;20556;-54
2022/04/24 01:11:56;;;;;;;11.03;7.20;;;6.70;1.00;;;;;;5106929;28;20223;-55
2022/04/24 01:14:27;;;;;;;12.93;6.80;;;6.80;1.00;;;;;;5099021;28;20474;-54
2022/04/24 01:16:53;;;;;;;13.63;7.60;;;6.70;1.00;;;;;;5093931;28;20744;-54
2022/04/24 01:19:19;;;;;;;13.03;7.73;;;6.70;1.00;;;;;;5104679;28;20493;-53
2022/04/24 01:21:48;;;;;;;13.27;7.23;;;6.60;1.00;;;;;;5110114;28;20278;-54
2022/04/24 01:24:17;;;;;;;12.50;6.67;;;6.60;1.00;;;;;;5092027;28;20908;-54
2022/04/24 01:26:43;;;;;;;12.17;7.13;;;6.60;1.00;;;;;;5095814;28;20931;-54
2022/04/24 01:29:11;;;;;;;11.83;7.07;;;6.60;1.00;;;;;;5097568;28;20443;-61
2022/04/24 01:31:37;;;;;;;9.77;7.07;;;6.70;1.00;;;;;;5106607;28;20203;-54
2022/04/24 01:34:03;;;;;;;11.33;8.03;;;6.60;1.00;;;;;;5078697;28;20468;-53
2022/04/24 01:36:28;;;;;;;10.23;6.83;;;6.60;1.00;;;;;;5099448;28;20487;-53
2022/04/24 01:38:54;;;;;;;11.83;7.40;;;6.60;1.00;;;;;;5098650;28;20192;-53
2022/04/24 01:41:19;;;;;;;11.73;7.10;;;6.60;1.00;;;;;;5099394;28;20545;-53
2022/04/24 01:43:46;;;;;;;11.30;7.00;;;6.60;1.00;;;;;;5111169;28;20196;-54
2022/04/24 01:46:13;;;;;;;10.53;6.33;;;6.70;1.00;;;;;;5106239;28;20181;-54
2022/04/24 01:48:38;;;;;;;10.30;6.90;;;6.70;99.90;;;;;;5097471;28;20445;-54
2022/04/24 01:51:06;;;;;;;11.50;6.87;;;6.70;99.90;;;;;;5111080;28;20431;-54
2022/04/24 01:53:32;;;;;;;12.20;5.73;;;6.70;99.90;;;;;;5095318;28;20955;-53
2022/04/24 01:56:04;;;;;;;8.87;6.37;;;6.70;99.90;;;;;;5105681;28;20438;-54
2022/04/24 01:58:30;;;;;;;8.70;5.80;;;6.60;99.90;;;;;;5103031;28;20426;-54
2022/04/24 02:00:55;;;;;;;12.60;6.90;;;6.60;99.90;;;;;;5104641;28;20518;-54
2022/04/24 02:03:22;;;;;;;11.33;6.00;;;6.60;99.90;;;;;;5099709;28;20791;-54
2022/04/24 02:05:48;;;;;;;9.57;5.93;;;6.60;99.90;;;;;;5074577;28;20197;-54
2022/04/24 02:08:14;;;;;;;8.47;5.33;;;6.60;99.90;;;;;;5107598;28;20486;-54
2022/04/24 02:10:40;;;;;;;11.30;5.97;;;6.50;99.90;;;;;;5109631;28;20265;-54
2022/04/24 02:13:06;;;;;;;7.07;5.47;;;6.50;99.90;;;;;;5109778;28;20779;-53
2022/04/24 02:15:31;;;;;;;9.00;5.77;;;6.50;99.90;;;;;;5096574;28;20280;-54
2022/04/24 02:17:57;;;;;;;8.50;5.63;;;6.50;99.90;;;;;;5091613;28;20236;-54
2022/04/24 02:20:23;;;;;;;6.70;5.30;;;6.50;99.90;;;;;;5109533;28;20200;-54
2022/04/24 02:22:50;;;;;;;7.70;5.30;;;6.50;99.90;;;;;;5109987;28;20275;-54
2022/04/24 02:25:17;;;;;;;13.07;6.00;;;6.50;99.90;;;;;;5108331;28;20430;-54
2022/04/24 02:27:43;;;;;;;11.90;5.83;;;6.50;99.90;;;;;;5088179;28;20431;-53
2022/04/24 02:30:08;;;;;;;10.00;6.10;;;6.60;99.90;;;;;;5098107;28;20517;-53
2022/04/24 02:32:34;;;;;;;5.97;4.80;;;6.60;99.90;;;;;;5094488;28;20200;-54
2022/04/24 02:35:00;;;;;;;8.97;5.53;;;6.60;99.90;;;;;;5109669;28;20220;-54
2022/04/24 02:37:26;;;;;;;6.87;5.00;;;6.60;99.90;;;;;;5109175;28;20203;-53
2022/04/24 02:39:52;;;;;;;9.47;5.17;;;6.50;99.90;;;;;;5110136;28;20181;-54
2022/04/24 02:42:18;;;;;;;7.57;4.67;;;6.50;99.90;;;;;;5109541;28;20582;-54
2022/04/24 02:44:43;;;;;;;8.03;5.17;;;6.50;99.90;;;;;;5104507;28;20513;-53
2022/04/24 02:47:09;;;;;;;8.10;5.10;;;6.50;99.90;;;;;;5107601;28;20991;-54
2022/04/24 02:49:35;;;;;;;12.10;5.23;;;6.50;99.90;;;;;;5109696;28;20256;-53
2022/04/24 02:52:00;;;;;;;10.17;5.30;;;6.50;99.90;;;;;;5105794;28;22152;-53
2022/04/24 02:54:26;;;;;;;8.50;4.83;;;6.50;99.90;;;;;;5100408;28;20220;-53
2022/04/24 02:56:51;;;;;;;10.63;5.13;;;6.50;99.90;;;;;;5108787;28;20192;-53
2022/04/24 02:59:17;;;;;;;8.17;4.63;;;6.50;99.90;;;;;;5091098;28;20192;-54
2022/04/24 03:01:44;;;;;;;6.27;4.50;;;6.60;99.90;;;;;;5110082;28;20184;-53
2022/04/24 03:04:10;;;;;;;9.63;5.47;;;6.50;99.90;;;;;;5109551;28;20572;-54
2022/04/24 03:06:36;;;;;;;7.20;4.83;;;6.40;99.90;;;;;;5106248;28;20429;-53
2022/04/24 03:09:01;;;;;;;8.93;5.43;;;6.40;99.90;;;;;;5097262;28;20198;-54
2022/04/24 03:11:27;;;;;;;10.77;5.93;;;6.40;99.90;;;;;;5087799;28;20246;-53
2022/04/24 03:13:52;;;;;;;7.53;4.67;;;6.30;99.90;;;;;;5094635;28;20633;-54
2022/04/24 03:16:18;;;;;;;7.17;4.83;;;6.40;99.90;;;;;;5113053;28;20194;-54
2022/04/24 03:18:43;;;;;;;7.03;5.50;;;6.40;99.90;;;;;;5113261;28;20269;-50
2022/04/24 03:21:09;;;;;;;9.30;5.33;;;6.30;99.90;;;;;;5094399;28;20206;-50
2022/04/24 03:23:34;;;;;;;6.20;4.73;;;6.20;99.90;;;;;;5111900;28;20192;-50
2022/04/24 03:26:00;;;;;;;9.20;5.13;;;6.20;99.90;;;;;;5112607;28;20180;-50
2022/04/24 03:28:26;;;;;;;10.97;5.20;;;6.20;99.90;;;;;;5113259;28;20616;-50
2022/04/24 03:30:51;;;;;;;12.23;5.33;;;6.20;99.90;;;;;;5113318;28;20196;-50
2022/04/24 03:33:17;;;;;;;11.63;5.47;;;6.10;99.90;;;;;;5110783;28;20242;-50
2022/04/24 03:35:42;;;;;;;10.03;4.70;;;6.10;99.90;;;;;;5113087;28;20226;-50
2022/04/24 03:38:08;;;;;;;10.43;5.70;;;6.10;99.90;;;;;;5112766;28;20253;-50
2022/04/24 03:40:33;;;;;;;7.73;4.73;;;5.90;99.90;;;;;;5112240;28;20192;-50
2022/04/24 03:42:59;;;;;;;7.53;5.13;;;6.00;1.00;;;;;;5113157;28;20265;-50
2022/04/24 03:45:25;;;;;;;10.47;4.80;;;6.00;1.00;;;;;;5101470;28;20741;-50
2022/04/24 03:47:51;;;;;;;7.93;5.07;;;6.00;1.00;;;;;;5106106;28;20257;-50
2022/04/24 03:50:19;;;;;;;11.23;4.90;;;5.90;1.00;;;;;;5110248;28;20200;-50
2022/04/24 03:52:44;;;;;;;8.20;5.07;;;6.00;1.00;;;;;;5098692;28;20442;-50
2022/04/24 03:55:10;;;;;;;12.57;5.20;;;5.80;1.00;;;;;;5097180;28;20470;-50
2022/04/24 03:57:35;;;;;;;13.67;5.33;;;5.80;1.00;;;;;;5106959;28;20267;-50
2022/04/24 04:00:01;;;;;;;10.67;5.67;;;5.70;1.00;;;;;;5103135;28;20300;-50
2022/04/24 04:02:27;;;;;;;10.90;5.30;;;5.60;1.00;;;;;;5110672;28;20197;-50
2022/04/24 04:04:52;;;;;;;9.00;5.63;;;5.60;1.00;;;;;;5109716;28;20593;-50
2022/04/24 04:07:18;;;;;;;10.53;5.60;;;5.60;1.00;;;;;;5101155;28;20837;-50
2022/04/24 04:09:44;;;;;;;13.80;5.63;;;5.60;1.00;;;;;;5106168;28;20192;-51
2022/04/24 04:12:13;;;;;;;10.00;6.63;;;5.50;1.00;;;;;;5102291;28;20228;-50
2022/04/24 04:14:38;;;;;;;11.40;5.73;;;5.60;1.00;;;;;;5111757;28;20212;-54
2022/04/24 04:17:04;;;;;;;9.80;6.03;;;5.60;1.00;;;;;;5110759;28;20956;-54
2022/04/24 04:19:29;;;;;;;11.27;6.33;;;5.60;1.00;;;;;;5110546;28;20949;-55
2022/04/24 04:21:55;;;;;;;8.83;4.90;;;5.60;1.00;;;;;;5112147;28;20189;-54
2022/04/24 04:24:21;;;;;;;11.57;5.90;;;5.60;1.00;;;;;;5109148;28;20208;-54
2022/04/24 04:26:46;;;;;;;11.53;6.70;;;5.70;1.00;;;;;;5110036;28;20261;-53
2022/04/24 04:29:12;;;;;;;11.80;5.97;;;5.70;1.00;;;;;;5109198;28;20193;-54
2022/04/24 04:31:37;;;;;;;10.60;6.27;;;5.70;1.00;;;;;;5088956;28;20641;-54
2022/04/24 04:34:03;;;;;;;14.77;7.20;;;5.70;1.00;;;;;;5104950;28;20811;-54
2022/04/24 04:36:29;;;;;;;10.87;7.40;;;5.80;1.00;;;;;;5095914;28;20200;-54
2022/04/24 04:38:55;;;;;;;12.73;6.73;;;5.80;1.00;;;;;;5088555;28;20751;-54
2022/04/24 04:41:20;;;;;;;12.17;7.40;;;5.80;1.00;;;;;;5110539;28;20203;-54
2022/04/24 04:43:46;;;;;;;12.30;7.23;;;5.80;36.30;;;;;;5110311;28;20627;-54
2022/04/24 04:46:11;;;;;;;18.63;7.53;;;5.90;4.50;;;;;;5107143;28;20200;-54
2022/04/24 04:48:37;;;;;;;13.63;6.90;;;5.90;8.10;;;;;;5099020;28;20268;-54
2022/04/24 04:51:02;;;;;;;15.97;7.77;;;6.00;1.00;;;;;;5097510;28;20199;-55
2022/04/24 04:53:28;;;;;;;16.80;7.60;;;6.10;13.10;;;;;;5108526;28;20641;-54
2022/04/24 04:55:53;;;;;;;12.07;6.90;;;6.20;3.30;;;;;;5093600;28;20189;-54
2022/04/24 04:58:19;;;;;;;13.30;7.40;;;6.20;3.30;;;;;;5102060;28;20722;-54
2022/04/24 05:00:44;;;;;;;17.17;7.93;;;6.20;14.20;;;;;;5099708;28;20204;-55
2022/04/24 05:03:10;;;;;;;18.60;7.30;;;6.30;23.20;;;;;;5107353;28;20200;-55
2022/04/24 05:05:35;;;;;;;14.80;7.87;;;6.30;1.00;;;;;;5111389;28;20199;-54
2022/04/24 05:08:02;;;;;;;16.03;8.00;;;6.40;2.00;;;;;;5112033;28;20553;-54
2022/04/24 05:10:27;;;;;;;13.80;8.27;;;6.50;1.00;;;;;;5111097;28;20231;-54
2022/04/24 05:12:53;;;;;;;19.40;7.70;;;6.60;1.00;;;;;;5111807;28;20470;-55
2022/04/24 05:15:21;;;;;;;14.87;7.60;;;6.60;1.00;;;;;;5110419;28;20673;-54
2022/04/24 05:17:47;;;;;;;12.37;7.50;;;6.70;1.00;;;;;;5110256;28;20216;-54
2022/04/24 05:20:12;;;;;;;14.50;7.43;;;6.70;1.00;;;;;;5111148;28;20430;-54
2022/04/24 05:22:40;;;;;;;12.97;7.73;;;6.80;1.00;;;;;;5098965;28;20853;-54
2022/04/24 05:25:09;;;;;;;14.23;7.00;;;6.90;1.00;;;;;;5106930;28;20208;-54
2022/04/24 05:27:36;;;;;;;12.40;6.27;;;7.00;1.00;;;;;;5111025;28;20521;-54
2022/04/24 05:30:07;;;;;;;13.13;7.17;;;7.00;1.00;;;;;;5110928;28;20520;-54
2022/04/24 05:32:47;;;;;;;13.10;6.73;;;7.10;1.00;;;;;;5108087;28;20445;-54
2022/04/24 05:35:12;;;;;;;11.00;6.23;;;7.10;1.00;;;;;;5107933;28;20878;-53
2022/04/24 05:37:38;;;;;;;15.63;6.90;;;7.20;1.00;;;;;;5107420;28;20467;-53
2022/04/24 05:40:05;;;;;;;13.40;5.90;;;7.30;1.00;;;;;;5098826;28;20653;-54
2022/04/24 05:42:30;;;;;;;9.73;5.80;;;7.50;1.00;;;;;;5097617;28;20228;-53
2022/04/24 05:45:00;;;;;;;14.87;6.27;;;7.60;1.00;;;;;;5092025;28;20478;-57
2022/04/24 05:47:26;;;;;;;10.30;6.03;;;7.70;1.00;;;;;;5106298;28;20207;-54
2022/04/24 05:49:52;;;;;;;12.47;6.30;;;8.00;1.00;;;;;;5094149;28;20776;-53
2022/04/24 05:52:17;;;;;;;8.73;5.07;;;8.20;1.00;;;;;;5097660;28;20797;-53
2022/04/24 05:54:43;;;;;;;19.20;5.63;;;8.40;1.00;;;;;;5106109;28;20224;-53
2022/04/24 05:57:08;;;;;;;12.30;5.67;;;8.60;99.90;;;;;;5106317;28;20254;-53
2022/04/24 05:59:34;;;;;;;8.77;4.83;;;8.80;99.90;;;;;;5108338;28;20662;-53
2022/04/24 06:01:59;;;;;;;12.50;6.03;;;8.90;99.90;;;;;;5105534;28;20199;-54
2022/04/24 06:04:25;;;;;;;13.63;5.80;;;9.10;99.90;;;;;;5104283;28;20231;-53
2022/04/24 06:06:50;;;;;;;13.53;6.03;;;9.20;99.90;;;;;;5109569;28;20199;-53
2022/04/24 06:09:18;;;;;;;7.33;5.20;;;9.30;99.90;;;;;;5102317;28;20231;-53
2022/04/24 06:11:44;;;;;;;11.37;5.97;;;9.50;99.90;;;;;;5108964;28;20195;-53
2022/04/24 06:14:09;;;;;;;8.53;4.87;;;9.70;99.90;;;;;;5109422;28;20461;-53
2022/04/24 06:16:36;;;;;;;7.57;4.97;;;9.90;99.90;;;;;;5110336;28;20196;-53
2022/04/24 06:19:01;;;;;;;8.07;5.03;;;10.00;99.90;;;;;;5109260;28;20775;-53
2022/04/24 06:21:27;;;;;;;8.10;4.70;;;10.20;99.90;;;;;;5109208;28;20442;-53
2022/04/24 06:23:52;;;;;;;7.60;4.73;;;10.20;99.90;;;;;;5110092;28;20274;-53
2022/04/24 06:26:18;;;;;;;8.13;4.40;;;10.40;99.90;;;;;;5108446;28;20228;-54
2022/04/24 06:28:43;;;;;;;7.33;4.20;;;10.60;99.90;;;;;;5109084;28;20266;-54
2022/04/24 06:31:09;;;;;;;6.77;4.63;;;10.80;99.90;;;;;;5109306;28;20196;-53
2022/04/24 06:33:34;;;;;;;7.50;4.90;;;10.80;99.90;;;;;;5105249;28;20196;-53
2022/04/24 06:36:01;;;;;;;7.03;4.00;;;11.00;99.90;;;;;;5106717;28;20205;-53
2022/04/24 06:38:26;;;;;;;6.73;4.50;;;11.10;99.90;;;;;;5108190;28;20316;-54
2022/04/24 06:40:53;;;;;;;7.30;4.30;;;11.10;99.90;;;;;;5104039;28;20549;-53
2022/04/24 06:43:19;;;;;;;7.77;4.30;;;11.30;99.90;;;;;;5101668;28;20210;-53
2022/04/24 06:45:44;;;;;;;4.80;3.93;;;11.40;99.90;;;;;;5109249;28;20442;-53
2022/04/24 06:48:11;;;;;;;14.00;4.83;;;11.60;99.90;;;;;;5106140;28;20211;-54
2022/04/24 06:50:38;;;;;;;7.40;4.47;;;11.70;99.90;;;;;;5109005;28;20218;-53
2022/04/24 06:53:05;;;;;;;5.40;4.07;;;11.80;99.90;;;;;;5099651;28;20435;-53
2022/04/24 06:55:32;;;;;;;4.60;4.10;;;11.80;99.90;;;;;;5106550;28;20484;-54
2022/04/24 06:57:59;;;;;;;6.10;4.70;;;12.00;99.90;;;;;;5096761;28;20804;-53
2022/04/24 07:00:26;;;;;;;7.50;3.80;;;12.20;99.90;;;;;;5106264;28;20461;-53
2022/04/24 07:02:51;;;;;;;7.47;4.20;;;12.30;99.90;;;;;;5107483;28;20792;-53
2022/04/24 07:05:21;;;;;;;9.37;5.40;;;12.30;99.90;;;;;;5085796;28;20451;-52
2022/04/24 07:07:46;;;;;;;6.70;3.90;;;12.40;99.90;;;;;;5099590;28;20199;-52
2022/04/24 07:10:12;;;;;;;6.00;4.20;;;12.50;99.90;;;;;;5098939;28;20423;-53
2022/04/24 07:13:04;;;;;;;10.87;4.40;;;12.80;99.90;;;;;;5098127;28;20643;-53
2022/04/24 07:15:32;;;;;;;4.60;3.53;;;13.10;99.90;;;;;;5090842;28;20220;-53
2022/04/24 07:17:58;;;;;;;6.13;4.13;;;13.30;99.90;;;;;;5077433;28;20480;-52
2022/04/24 07:20:24;;;;;;;7.60;4.27;;;13.60;99.90;;;;;;5108485;28;20438;-52
2022/04/24 07:22:54;;;;;;;5.43;3.87;;;13.70;99.90;;;;;;5103882;28;20227;-52
2022/04/24 07:25:25;;;;;;;8.40;4.17;;;13.70;99.90;;;;;;5090184;28;20453;-53
2022/04/24 07:27:51;;;;;;;9.27;3.97;;;13.70;99.90;;;;;;5098446;28;20450;-52
2022/04/24 07:30:18;;;;;;;6.00;4.10;;;13.60;99.90;;;;;;5094310;28;20454;-53
2022/04/24 07:32:48;;;;;;;7.10;4.07;;;13.80;99.90;;;;;;5103884;28;20437;-52
2022/04/24 07:35:16;;;;;;;5.50;3.33;;;14.00;99.90;;;;;;5108267;28;20833;-52
2022/04/24 07:37:42;;;;;;;7.40;4.20;;;14.30;99.90;;;;;;5106245;28;20834;-56
2022/04/24 07:40:10;;;;;;;7.33;4.00;;;14.50;99.90;;;;;;5108126;28;20495;-52
2022/04/24 07:42:48;;;;;;;6.90;3.87;;;14.60;99.90;;;;;;5102556;28;20471;-53
2022/04/24 07:45:21;;;;;;;4.90;3.60;;;15.00;99.90;;;;;;5106232;28;20449;-53
2022/04/24 07:47:47;;;;;;;4.53;3.77;;;15.00;99.90;;;;;;5109327;28;20437;-53
2022/04/24 07:50:14;;;;;;;7.77;4.00;;;14.90;99.90;;;;;;5110166;28;20409;-53
2022/04/24 07:52:40;;;;;;;5.60;3.40;;;15.00;99.90;;;;;;5103684;28;20446;-53
2022/04/24 07:55:06;;;;;;;7.20;3.90;;;15.00;99.90;;;;;;5089807;28;20458;-52
2022/04/24 07:57:32;;;;;;;6.40;3.73;;;15.20;99.90;;;;;;5097175;28;20245;-49
2022/04/24 08:00:00;;;;;;;7.77;3.50;;;14.90;99.90;;;;;;5095393;28;20418;-50
2022/04/24 08:02:26;;;;;;;4.43;3.87;;;15.20;99.90;;;;;;5111512;28;20173;-53
2022/04/24 08:04:51;;;;;;;5.40;3.47;;;15.30;99.90;;;;;;5093102;28;20456;-52
2022/04/24 08:07:22;;;;;;;5.50;3.47;;;15.50;99.90;;;;;;5093284;28;20212;-52
2022/04/24 08:09:49;;;;;;;5.30;3.80;;;15.80;99.90;;;;;;5113855;28;20176;-53
2022/04/24 08:12:14;;;;;;;5.30;3.43;;;16.30;99.90;;;;;;5112191;28;20916;-52
2022/04/24 08:14:40;;;;;;;4.37;3.73;;;16.50;99.90;;;;;;5112869;28;20473;-53
2022/04/24 08:17:05;;;;;;;6.47;3.83;;;16.60;99.90;;;;;;5096967;28;20204;-52
2022/04/24 08:19:31;;;;;;;16.10;8.60;;;16.70;99.90;;;;;;5105179;28;20198;-53
2022/04/24 08:21:56;;;;;;;132.37;63.93;;;16.70;99.90;;;;;;5111675;28;20273;-53
2022/04/24 08:24:22;;;;;;;5.90;4.00;;;16.70;99.90;;;;;;5113142;28;20563;-52
2022/04/24 08:26:47;;;;;;;9.10;3.80;;;16.80;99.90;;;;;;5110379;28;20183;-52
2022/04/24 08:29:13;;;;;;;4.63;3.00;;;16.90;99.90;;;;;;5104931;28;20617;-52
2022/04/24 08:31:38;;;;;;;10.73;3.50;;;16.90;99.90;;;;;;5092606;28;20710;-53
2022/04/24 08:34:03;;;;;;;7.00;4.03;;;16.80;99.90;;;;;;5092331;28;20215;-52
2022/04/24 08:36:29;;;;;;;8.13;3.40;;;16.80;99.90;;;;;;5091385;28;20193;-53
2022/04/24 08:38:55;;;;;;;4.33;3.40;;;16.90;99.90;;;;;;5092460;28;20279;-53
2022/04/24 08:41:21;;;;;;;4.80;3.73;;;17.10;99.90;;;;;;5092537;28;20635;-53
2022/04/24 08:43:47;;;;;;;9.43;3.77;;;17.00;99.90;;;;;;5092587;28;20241;-52
2022/04/24 08:46:13;;;;;;;8.17;3.60;;;17.00;99.90;;;;;;5101434;28;20415;-53
2022/04/24 08:48:40;;;;;;;5.93;3.60;;;17.00;99.90;;;;;;5100935;28;20435;-52
2022/04/24 08:51:08;;;;;;;5.27;3.40;;;17.10;99.90;;;;;;5111971;28;20283;-53
2022/04/24 08:53:35;;;;;;;3.87;3.10;;;17.00;99.90;;;;;;5106684;28;20419;-53
2022/04/24 08:56:01;;;;;;;5.07;3.60;;;17.00;99.90;;;;;;5092186;28;20439;-53
2022/04/24 08:58:27;;;;;;;10.03;3.50;;;17.20;99.90;;;;;;5109810;28;20446;-52
2022/04/24 09:00:53;;;;;;;5.30;3.70;;;17.40;99.90;;;;;;5099058;28;20426;-52
2022/04/24 09:03:19;;;;;;;9.67;4.00;;;17.70;99.90;;;;;;5108040;28;20203;-52
2022/04/24 09:05:44;;;;;;;6.90;3.30;;;17.90;99.90;;;;;;5109051;28;20192;-53
2022/04/24 09:08:11;;;;;;;6.03;4.33;;;17.80;99.90;;;;;;5111241;28;20192;-52
2022/04/24 09:10:54;;;;;;;6.43;4.00;;;17.50;99.90;;;;;;5112314;28;20191;-53
2022/04/24 09:16:19;;;;;;;6.10;3.67;;;17.20;99.90;;;;;;5112523;28;21179;-53
2022/04/24 09:18:46;;;;;;;4.67;3.17;;;17.40;99.90;;;;;;5112019;28;20461;-53
2022/04/24 09:21:13;;;;;;;5.90;3.30;;;17.60;99.90;;;;;;5104405;28;20461;-52
2022/04/24 09:23:42;;;;;;;7.67;3.43;;;17.50;99.90;;;;;;5111109;28;20521;-53
2022/04/24 09:26:14;;;;;;;5.20;3.30;;;17.70;99.90;;;;;;5104977;28;20454;-52
2022/04/24 09:28:40;;;;;;;4.07;3.43;;;17.70;99.90;;;;;;5112028;28;20425;-53
2022/04/24 09:31:07;;;;;;;6.13;3.37;;;17.70;99.90;;;;;;5112092;28;20394;-52
2022/04/24 09:33:38;;;;;;;6.87;3.40;;;17.80;99.90;;;;;;5111763;28;20470;-52
2022/04/24 09:36:03;;;;;;;6.60;3.13;;;17.70;99.90;;;;;;5111836;28;20455;-52
2022/04/24 09:38:29;;;;;;;6.70;3.83;;;17.60;99.90;;;;;;5103997;28;20446;-54
2022/04/24 09:40:54;;;;;;;5.50;3.73;;;17.40;99.90;;;;;;5101304;28;20192;-52
2022/04/24 09:43:20;;;;;;;5.77;3.60;;;17.50;99.90;;;;;;5079711;28;20408;-52
2022/04/24 09:45:53;;;;;;;4.80;3.60;;;17.40;99.90;;;;;;5095805;28;20211;-51
2022/04/24 09:48:21;;;;;;;10.97;3.77;;;17.10;99.90;;;;;;5093532;27;20424;-52
2022/04/24 09:50:50;;;;;;;5.77;3.87;;;16.90;99.90;;;;;;5098509;28;20433;-52
2022/04/24 09:53:20;;;;;;;9.13;3.30;;;16.80;99.90;;;;;;5106564;27;20444;-52
2022/04/24 09:55:49;;;;;;;5.53;3.60;;;16.90;99.90;;;;;;5103316;27;20468;-52
2022/04/24 09:58:15;;;;;;;5.57;3.87;;;16.70;99.90;;;;;;5108885;28;20529;-53
2022/04/24 10:00:42;;;;;;;8.97;3.30;;;16.70;99.90;;;;;;5109516;27;20423;-52
2022/04/24 10:03:09;;;;;;;6.53;3.27;;;16.60;99.90;;;;;;5096941;28;20446;-51
2022/04/24 10:05:38;;;;;;;7.07;3.50;;;16.40;99.90;;;;;;5106244;27;20465;-52
2022/04/24 10:08:06;;;;;;;7.80;3.67;;;16.40;99.90;;;;;;5103725;27;20437;-52
2022/04/24 10:10:31;;;;;;;14.23;4.10;;;16.50;99.90;;;;;;5096121;28;20447;-54
2022/04/24 10:13:00;;;;;;;8.17;4.33;;;16.40;99.90;;;;;;5109736;27;20806;-52
2022/04/24 10:15:27;;;;;;;7.47;3.73;;;16.70;99.90;;;;;;5105116;27;20299;-52
2022/04/24 10:18:08;;;;;;;4.50;3.33;;;16.90;99.90;;;;;;5097317;28;20479;-53
2022/04/24 10:21:02;;;;;;;4.83;3.43;;;17.30;99.90;;;;;;5096184;28;20743;-52
2022/04/24 10:23:32;;;;;;;4.70;3.17;;;17.50;99.90;;;;;;5106653;28;20832;-52
2022/04/24 10:25:57;;;;;;;6.30;3.33;;;17.60;99.90;;;;;;5104324;28;20501;-52
2022/04/24 10:28:35;;;;;;;5.43;4.10;;;17.70;99.90;;;;;;5105346;28;20438;-52
2022/04/24 10:31:03;;;;;;;5.70;3.40;;;17.60;99.90;;;;;;5098415;28;20205;-53
2022/04/24 10:33:32;;;;;;;6.80;3.40;;;17.50;99.90;;;;;;5091622;28;20445;-53
2022/04/24 10:36:19;;;;;;;4.20;3.40;;;17.70;99.90;;;;;;5095304;28;20527;-52
2022/04/24 10:38:49;;;;;;;7.77;3.23;;;18.20;99.90;;;;;;5100914;28;20521;-52
2022/04/24 10:41:18;;;;;;;8.80;3.60;;;18.90;99.90;;;;;;5102493;28;20821;-53
2022/04/24 10:43:48;;;;;;;5.97;3.37;;;19.80;99.90;;;;;;5104930;28;20434;-52
2022/04/24 10:46:30;;;;;;;4.43;3.17;;;20.20;99.90;;;;;;5104595;28;20517;-53
2022/04/24 10:49:10;;;;;;;6.30;3.60;;;20.10;99.90;;;;;;5102950;27;20529;-52
2022/04/24 10:51:37;;;;;;;10.60;3.50;;;19.90;99.90;;;;;;5101618;28;20510;-52
2022/04/24 10:54:13;;;;;;;10.60;3.47;;;19.90;99.90;;;;;;5095638;28;20466;-53
2022/04/24 10:56:49;;;;;;;5.13;3.63;;;20.30;99.90;;;;;;5094794;28;20437;-53
2022/04/24 10:59:19;;;;;;;6.10;4.20;;;20.40;99.90;;;;;;5106694;28;20437;-53
2022/04/24 11:01:50;;;;;;;12.00;4.00;;;20.70;99.90;;;;;;5106139;28;20462;-52
2022/04/24 11:04:17;;;;;;;6.10;3.50;;;21.10;99.90;;;;;;5104168;28;20442;-54
2022/04/24 11:06:58;;;;;;;9.07;3.87;;;20.80;99.90;;;;;;5109719;28;20438;-53
2022/04/24 11:09:30;;;;;;;6.70;3.90;;;20.00;99.90;;;;;;5095706;28;20494;-52
2022/04/24 11:12:03;;;;;;;7.23;3.70;;;19.90;99.90;;;;;;5108529;28;20660;-53
2022/04/24 11:14:30;;;;;;;4.63;3.33;;;19.80;99.90;;;;;;5106015;28;20458;-52
2022/04/24 11:16:59;;;;;;;8.07;3.70;;;20.00;99.90;;;;;;5109413;28;20437;-53
2022/04/24 11:19:28;;;;;;;9.30;3.70;;;20.10;99.90;;;;;;5099135;28;20566;-53
2022/04/24 11:21:59;;;;;;;5.30;4.00;;;19.50;99.90;;;;;;5105327;28;20458;-52
2022/04/24 11:24:31;;;;;;;5.40;3.33;;;18.90;99.90;;;;;;5100318;28;20526;-52
2022/04/24 11:27:00;;;;;;;10.67;3.70;;;18.30;99.90;;;;;;5091590;28;20937;-52
2022/04/24 11:29:26;;;;;;;7.23;3.97;;;17.70;99.90;;;;;;5102912;28;20453;-52
2022/04/24 11:31:54;;;;;;;8.33;4.07;;;16.90;99.90;;;;;;5106520;28;21994;-52
2022/04/24 11:34:21;;;;;;;6.23;3.90;;;16.40;99.90;;;;;;5112613;28;20331;-52
2022/04/24 11:36:49;;;;;;;8.00;3.77;;;16.00;99.90;;;;;;5106182;28;20764;-52
2022/04/24 11:39:15;;;;;;;4.67;3.63;;;15.90;99.90;;;;;;5111267;28;20524;-52
2022/04/24 11:41:46;;;;;;;9.27;4.10;;;15.60;99.90;;;;;;5107167;28;20429;-52
2022/04/24 11:52:38;;;;;;;6.70;4.20;;;15.10;99.90;;;;;;5113153;28;20598;-53
2022/04/24 11:55:15;;;;;;;8.47;4.93;;;14.90;99.90;;;;;;5113635;28;20454;-53
2022/04/24 11:57:41;;;;;;;13.00;4.60;;;14.70;99.90;;;;;;5108374;28;20410;-53
2022/04/24 12:00:09;;;;;;;8.63;4.90;;;14.50;99.90;;;;;;5093836;28;20415;-50
2022/04/24 12:02:35;;;;;;;7.30;4.63;;;14.30;99.90;;;;;;5109010;28;21025;-50
2022/04/24 12:05:07;;;;;;;8.67;5.50;;;14.50;99.90;;;;;;5093411;28;20437;-50
2022/04/24 12:07:33;;;;;;;8.00;4.90;;;14.90;99.90;;;;;;5100087;28;20430;-50
2022/04/24 12:10:04;;;;;;;7.70;4.50;;;15.10;99.90;;;;;;5110753;28;20433;-49
2022/04/24 12:12:30;;;;;;;7.57;4.27;;;15.00;99.90;;;;;;5111923;28;20857;-49
2022/04/24 12:14:56;;;;;;;6.57;4.77;;;14.40;99.90;;;;;;5111692;28;20465;-50
2022/04/24 12:17:23;;;;;;;9.20;5.27;;;14.00;99.90;;;;;;5111691;28;20446;-50
2022/04/24 12:19:52;;;;;;;10.63;4.70;;;13.70;99.90;;;;;;5110064;28;20192;-50
2022/04/24 12:22:30;;;;;;;11.07;4.90;;;13.70;99.90;;;;;;5111653;28;20444;-50
2022/04/24 12:25:11;;;;;;;8.37;4.57;;;13.60;99.90;;;;;;5111462;28;20430;-50
2022/04/24 12:27:37;;;;;;;11.73;5.30;;;13.60;99.90;;;;;;5108530;28;20475;-50
2022/04/24 12:30:06;;;;;;;10.23;5.60;;;13.70;99.90;;;;;;5112122;28;20434;-50
2022/04/24 12:32:33;;;;;;;8.17;5.00;;;13.80;99.90;;;;;;5110935;28;20445;-49
2022/04/24 12:34:59;;;;;;;11.20;4.73;;;13.70;99.90;;;;;;5111213;28;20462;-49
2022/04/24 12:37:32;;;;;;;14.50;5.27;;;13.60;99.90;;;;;;5107453;28;20439;-49
2022/04/24 12:39:58;;;;;;;8.23;5.10;;;13.50;99.90;;;;;;5106223;28;20218;-49
2022/04/24 12:42:25;;;;;;;13.93;5.57;;;13.40;99.90;;;;;;5092567;28;20470;-48
2022/04/24 12:44:51;;;;;;;10.47;5.40;;;13.40;99.90;;;;;;5081559;28;20443;-49
2022/04/24 12:47:17;;;;;;;7.20;5.07;;;13.70;99.90;;;;;;5097458;28;20427;-49
2022/04/24 12:49:45;;;;;;;12.40;5.10;;;14.20;99.90;;;;;;5107982;27;20446;-49
2022/04/24 12:52:12;;;;;;;10.40;5.30;;;15.10;99.90;;;;;;5107300;28;20430;-49
2022/04/24 12:54:37;;;;;;;10.87;5.00;;;16.10;99.90;;;;;;5095359;28;20582;-49
2022/04/24 12:57:09;;;;;;;7.00;5.13;;;16.10;99.90;;;;;;5094276;28;20418;-49
2022/04/24 12:59:35;;;;;;;8.40;5.30;;;15.50;99.90;;;;;;5107249;28;20188;-49
2022/04/24 13:02:02;;;;;;;12.63;4.80;;;15.00;99.90;;;;;;5110348;28;20434;-49